createdAt,value
2018-04-08T00:01:01.040Z,99.90
2018-04-08T00:03:30.317Z,99.90
2018-04-08T00:06:00.943Z,99.90
2018-04-08T00:08:30.072Z,99.90
2018-04-08T00:10:59.503Z,99.90
2018-04-08T00:13:28.909Z,99.90
2018-04-08T00:15:58.206Z,99.90
2018-04-08T00:18:27.456Z,99.90
2018-04-08T00:20:57.671Z,99.90
2018-04-08T00:23:27.678Z,99.90
2018-04-08T00:25:57.096Z,99.90
2018-04-08T00:28:27.012Z,99.90
2018-04-08T00:30:57.240Z,99.90
2018-04-08T00:33:27.227Z,99.90
2018-04-08T00:35:56.413Z,99.90
2018-04-08T00:38:25.686Z,99.90
2018-04-08T00:40:54.964Z,99.90
2018-04-08T00:43:24.975Z,99.90
2018-04-08T00:45:54.763Z,99.90
2018-04-08T00:48:23.827Z,99.90
2018-04-08T00:50:53.198Z,99.90
2018-04-08T00:53:22.587Z,99.90
2018-04-08T00:55:52.565Z,99.90
2018-04-08T00:58:21.433Z,99.90
2018-04-08T01:00:50.334Z,99.90
2018-04-08T01:03:19.115Z,99.90
2018-04-08T01:05:48.111Z,99.90
2018-04-08T01:08:17.105Z,99.90
2018-04-08T01:10:45.966Z,99.90
2018-04-08T01:13:15.093Z,99.90
2018-04-08T01:15:43.876Z,99.90
2018-04-08T01:18:13.054Z,99.90
2018-04-08T01:20:43.267Z,99.90
2018-04-08T01:23:14.455Z,99.90
2018-04-08T01:25:44.594Z,99.90
2018-04-08T01:28:13.880Z,99.90
2018-04-08T01:30:43.075Z,99.90
2018-04-08T01:33:12.171Z,99.90
2018-04-08T01:35:43.748Z,99.90
2018-04-08T01:38:12.896Z,99.90
2018-04-08T01:40:42.017Z,99.90
2018-04-08T01:43:11.224Z,99.90
2018-04-08T01:45:40.387Z,99.90
2018-04-08T01:48:10.511Z,99.90
2018-04-08T01:50:40.656Z,99.90
2018-04-08T01:53:10.489Z,99.90
2018-04-08T01:55:40.469Z,99.90
2018-04-08T01:58:09.556Z,99.90
2018-04-08T02:00:39.807Z,99.90
2018-04-08T02:03:08.909Z,99.90
2018-04-08T02:05:38.215Z,99.90
2018-04-08T02:08:07.372Z,99.90
2018-04-08T02:10:37.499Z,99.90
2018-04-08T02:13:07.680Z,99.90
2018-04-08T02:15:37.370Z,99.90
2018-04-08T02:18:06.468Z,99.90
2018-04-08T02:20:36.696Z,99.90
2018-04-08T02:23:06.654Z,99.90
2018-04-08T02:25:36.091Z,99.90
2018-04-08T02:28:05.199Z,99.90
2018-04-08T02:30:34.378Z,99.90
2018-04-08T02:33:03.571Z,99.90
2018-04-08T02:35:32.916Z,99.90
2018-04-08T02:38:01.951Z,99.90
2018-04-08T02:40:31.311Z,99.90
2018-04-08T02:43:00.329Z,99.90
2018-04-08T02:45:29.476Z,99.90
2018-04-08T02:47:58.253Z,99.90
2018-04-08T02:50:28.376Z,99.90
2018-04-08T02:52:57.675Z,99.90
2018-04-08T02:55:27.901Z,99.90
2018-04-08T02:57:57.205Z,99.90
2018-04-08T03:00:26.512Z,99.90
2018-04-08T03:02:55.575Z,99.90
2018-04-08T03:05:24.637Z,99.90
2018-04-08T03:07:54.750Z,99.90
2018-04-08T03:10:25.073Z,99.90
2018-04-08T03:12:54.248Z,99.90
2018-04-08T03:15:23.688Z,99.90
2018-04-08T03:17:52.978Z,99.90
2018-04-08T03:20:22.051Z,99.90
2018-04-08T03:22:51.548Z,99.90
2018-04-08T03:25:21.484Z,99.90
2018-04-08T03:27:50.429Z,99.90
2018-04-08T03:30:19.675Z,99.90
2018-04-08T03:32:49.475Z,99.90
2018-04-08T03:35:19.817Z,99.90
2018-04-08T03:37:48.999Z,99.90
2018-04-08T03:40:18.927Z,99.90
2018-04-08T03:42:48.212Z,99.90
2018-04-08T03:45:17.758Z,99.90
2018-04-08T03:47:46.851Z,99.90
2018-04-08T03:50:15.950Z,99.90
2018-04-08T03:52:45.932Z,99.90
2018-04-08T03:55:15.449Z,99.90
2018-04-08T03:57:44.476Z,99.90
2018-04-08T04:00:14.894Z,99.90
2018-04-08T04:02:44.150Z,99.90
2018-04-08T04:05:13.524Z,99.90
2018-04-08T04:07:42.829Z,99.90
2018-04-08T04:10:12.126Z,99.90
2018-04-08T04:12:41.759Z,99.90
2018-04-08T04:15:11.145Z,99.90
2018-04-08T04:17:40.369Z,99.90
2018-04-08T04:20:22.266Z,99.90
2018-04-08T04:23:03.344Z,99.90
2018-04-08T04:25:59.072Z,99.90
2018-04-08T04:28:28.137Z,99.90
2018-04-08T04:30:57.942Z,99.90
2018-04-08T04:33:27.221Z,99.90
2018-04-08T04:35:56.329Z,99.90
2018-04-08T04:38:26.341Z,99.90
2018-04-08T04:40:56.284Z,99.90
2018-04-08T04:43:25.729Z,99.90
2018-04-08T04:45:55.708Z,99.90
2018-04-08T04:48:24.800Z,99.90
2018-04-08T04:50:54.208Z,99.90
2018-04-08T04:53:23.481Z,99.90
2018-04-08T04:55:53.001Z,99.90
2018-04-08T04:58:21.988Z,99.90
2018-04-08T05:00:52.280Z,99.90
2018-04-08T05:03:21.677Z,99.90
2018-04-08T05:05:51.908Z,99.90
2018-04-08T05:08:21.248Z,99.90
2018-04-08T05:10:50.472Z,99.90
2018-04-08T05:13:19.792Z,99.90
2018-04-08T05:15:49.787Z,99.70
2018-04-08T05:18:18.920Z,99.60
2018-04-08T05:20:49.228Z,99.60
2018-04-08T05:23:18.284Z,99.70
2018-04-08T05:25:48.467Z,98.90
2018-04-08T05:28:17.568Z,98.90
2018-04-08T05:30:46.878Z,98.40
2018-04-08T05:33:16.811Z,99.00
2018-04-08T05:35:47.065Z,99.00
2018-04-08T05:38:16.100Z,99.00
2018-04-08T05:40:45.645Z,98.80
2018-04-08T05:43:14.844Z,98.60
2018-04-08T05:45:45.034Z,96.70
2018-04-08T05:48:15.108Z,94.70
2018-04-08T05:50:44.406Z,94.70
2018-04-08T05:53:13.656Z,93.50
2018-04-08T05:55:42.956Z,91.80
2018-04-08T05:58:13.034Z,89.50
2018-04-08T06:00:42.380Z,89.40
2018-04-08T06:03:11.618Z,87.00
2018-04-08T06:05:40.950Z,88.30
2018-04-08T06:08:11.000Z,91.70
2018-04-08T06:10:41.075Z,92.20
2018-04-08T06:13:10.235Z,92.10
2018-04-08T06:15:39.724Z,92.20
2018-04-08T06:18:09.700Z,93.70
2018-04-08T06:20:39.290Z,93.20
2018-04-08T06:23:08.630Z,93.90
2018-04-08T06:25:38.370Z,93.60
2018-04-08T06:28:07.668Z,93.00
2018-04-08T06:30:38.024Z,92.50
2018-04-08T06:33:07.900Z,92.40
2018-04-08T06:35:37.786Z,92.40
2018-04-08T06:38:07.942Z,91.80
2018-04-08T06:40:37.592Z,91.80
2018-04-08T06:43:06.792Z,90.70
2018-04-08T06:45:35.930Z,83.30
2018-04-08T06:48:05.268Z,80.80
2018-04-08T06:50:34.758Z,79.80
2018-04-08T06:53:03.888Z,81.10
2018-04-08T06:55:33.291Z,80.30
2018-04-08T06:58:02.292Z,76.80
2018-04-08T07:00:32.383Z,80.10
2018-04-08T07:03:01.614Z,80.00
2018-04-08T07:05:31.151Z,81.50
2018-04-08T07:08:00.063Z,82.80
2018-04-08T07:10:29.308Z,85.20
2018-04-08T07:12:58.560Z,86.50
2018-04-08T07:15:28.035Z,87.90
2018-04-08T07:17:57.427Z,87.50
2018-04-08T07:20:26.652Z,85.60
2018-04-08T07:22:55.737Z,88.20
2018-04-08T07:25:25.195Z,85.70
2018-04-08T07:27:55.032Z,82.70
2018-04-08T07:30:24.273Z,82.60
2018-04-08T07:32:53.353Z,80.10
2018-04-08T07:35:22.265Z,79.60
2018-04-08T07:37:51.421Z,84.70
2018-04-08T07:40:20.556Z,87.10
2018-04-08T07:42:49.848Z,87.20
2018-04-08T07:45:19.215Z,87.30
2018-04-08T07:47:48.294Z,89.50
2018-04-08T07:50:17.762Z,90.00
2018-04-08T07:52:46.922Z,89.30
2018-04-08T07:55:15.992Z,89.40
2018-04-08T07:57:45.348Z,88.20
2018-04-08T08:00:14.692Z,90.00
2018-04-08T08:02:43.816Z,90.90
2018-04-08T08:05:13.265Z,91.10
2018-04-08T08:07:42.232Z,91.00
2018-04-08T08:10:13.136Z,91.40
2018-04-08T08:12:43.093Z,91.80
2018-04-08T08:15:12.352Z,91.80
2018-04-08T08:17:41.490Z,92.90
2018-04-08T08:20:10.700Z,93.20
2018-04-08T08:22:39.908Z,93.20
2018-04-08T08:25:09.468Z,94.50
2018-04-08T08:27:38.860Z,94.30
2018-04-08T08:30:09.094Z,94.20
2018-04-08T08:32:38.987Z,94.60
2018-04-08T08:35:09.116Z,95.00
2018-04-08T08:37:39.166Z,95.50
2018-04-08T08:40:08.674Z,95.50
2018-04-08T08:42:38.687Z,94.10
2018-04-08T08:45:08.453Z,93.40
2018-04-08T08:47:37.463Z,93.40
2018-04-08T08:50:07.517Z,94.00
2018-04-08T08:52:36.583Z,94.00
2018-04-08T08:55:05.852Z,94.00
2018-04-08T08:57:34.872Z,94.40
2018-04-08T09:00:04.055Z,93.10
2018-04-08T09:02:33.232Z,94.10
2018-04-08T09:05:02.211Z,94.80
2018-04-08T09:07:31.322Z,95.20
2018-04-08T09:10:00.364Z,95.10
2018-04-08T09:12:29.750Z,95.20
2018-04-08T09:14:59.199Z,95.90
2018-04-08T09:17:28.487Z,95.70
2018-04-08T09:19:59.610Z,95.50
2018-04-08T09:22:34.872Z,94.10
2018-04-08T09:25:14.179Z,94.00
2018-04-08T09:27:43.561Z,94.20
2018-04-08T09:30:12.961Z,94.60
2018-04-08T09:32:42.223Z,94.90
2018-04-08T09:35:12.328Z,95.70
2018-04-08T09:37:41.846Z,95.70
2018-04-08T09:40:11.592Z,95.00
2018-04-08T09:42:40.739Z,95.00
2018-04-08T09:45:09.986Z,94.30
2018-04-08T09:47:39.890Z,93.80
2018-04-08T09:50:09.165Z,93.80
2018-04-08T09:52:39.190Z,93.40
2018-04-08T09:55:08.626Z,93.40
2018-04-08T09:57:59.369Z,93.30
2018-04-08T10:00:34.135Z,93.20
2018-04-08T10:03:08.028Z,93.80
2018-04-08T10:05:37.466Z,94.20
2018-04-08T10:08:06.692Z,93.40
2018-04-08T10:10:36.089Z,93.00
2018-04-08T10:13:05.471Z,92.00
2018-04-08T10:15:34.819Z,91.80
2018-04-08T10:18:04.085Z,92.20
2018-04-08T10:20:34.164Z,91.40
2018-04-08T10:23:03.357Z,91.30
2018-04-08T10:25:33.304Z,91.50
2018-04-08T10:28:02.611Z,91.40
2018-04-08T10:30:32.800Z,91.50
2018-04-08T10:33:03.008Z,90.70
2018-04-08T10:35:32.881Z,91.80
2018-04-08T10:38:02.884Z,90.90
2018-04-08T10:40:32.779Z,90.70
2018-04-08T10:43:02.716Z,90.90
2018-04-08T10:45:31.924Z,90.50
2018-04-08T10:48:02.262Z,90.10
2018-04-08T10:50:31.664Z,90.10
2018-04-08T10:53:00.516Z,90.10
2018-04-08T10:55:29.751Z,90.10
2018-04-08T10:57:58.906Z,91.00
2018-04-08T11:00:28.936Z,89.90
2018-04-08T11:02:59.107Z,90.10
2018-04-08T11:05:28.245Z,90.10
2018-04-08T11:07:57.447Z,89.60
2018-04-08T11:10:27.686Z,89.10
2018-04-08T11:12:56.926Z,89.10
2018-04-08T11:15:26.040Z,88.50
2018-04-08T11:17:55.273Z,88.20
2018-04-08T11:20:25.493Z,86.40
2018-04-08T11:22:54.616Z,86.20
2018-04-08T11:25:24.585Z,88.30
2018-04-08T11:27:53.865Z,88.20
2018-04-08T11:30:23.415Z,88.10
2018-04-08T11:32:53.492Z,88.20
2018-04-08T11:35:22.484Z,88.20
2018-04-08T11:37:51.683Z,88.10
2018-04-08T11:40:21.134Z,87.60
2018-04-08T11:42:51.147Z,87.00
2018-04-08T11:45:21.187Z,87.60
2018-04-08T11:47:50.060Z,87.60
2018-04-08T11:50:19.448Z,87.00
2018-04-08T11:52:48.724Z,87.50
2018-04-08T11:55:18.211Z,87.60
2018-04-08T11:57:47.380Z,87.60
2018-04-08T12:00:17.421Z,87.50
2018-04-08T12:02:46.726Z,87.50
2018-04-08T12:05:16.913Z,87.70
2018-04-08T12:07:46.784Z,86.30
2018-04-08T12:10:16.291Z,86.30
2018-04-08T12:12:45.595Z,86.70
2018-04-08T12:15:14.971Z,87.20
2018-04-08T12:17:43.918Z,88.50
2018-04-08T12:20:14.110Z,87.70
2018-04-08T12:22:43.634Z,87.80
2018-04-08T12:25:13.119Z,85.10
2018-04-08T12:27:42.548Z,86.10
2018-04-08T12:30:12.089Z,84.70
2018-04-08T12:32:41.642Z,87.30
2018-04-08T12:35:10.934Z,86.90
2018-04-08T12:37:40.224Z,88.70
2018-04-08T12:40:09.804Z,90.80
2018-04-08T12:42:39.720Z,93.80
2018-04-08T12:45:09.611Z,93.70
2018-04-08T12:47:38.826Z,93.70
2018-04-08T12:50:08.491Z,92.90
2018-04-08T12:52:37.772Z,92.80
2018-04-08T12:55:07.053Z,93.60
2018-04-08T12:57:37.168Z,93.90
2018-04-08T13:00:07.095Z,94.40
2018-04-08T13:02:37.095Z,94.40
2018-04-08T13:05:07.360Z,94.50
2018-04-08T13:07:36.663Z,94.50
2018-04-08T13:10:06.777Z,94.90
2018-04-08T13:12:36.880Z,95.30
2018-04-08T13:15:06.386Z,95.30
2018-04-08T13:17:35.810Z,95.60
2018-04-08T13:20:05.505Z,96.50
2018-04-08T13:22:35.417Z,97.50
2018-04-08T13:25:04.783Z,97.40
2018-04-08T13:27:33.900Z,98.00
2018-04-08T13:30:03.064Z,98.00
2018-04-08T13:32:32.097Z,99.10
2018-04-08T13:35:01.531Z,99.40
2018-04-08T13:37:30.921Z,99.70
2018-04-08T13:40:00.955Z,99.80
2018-04-08T13:42:30.288Z,99.80
2018-04-08T13:44:59.659Z,99.90
2018-04-08T13:47:28.836Z,99.90
2018-04-08T13:49:58.136Z,99.90
2018-04-08T13:52:27.272Z,99.90
2018-04-08T13:54:56.595Z,99.90
2018-04-08T13:57:26.005Z,99.90
2018-04-08T13:59:55.451Z,99.90
2018-04-08T14:02:25.521Z,99.90
2018-04-08T14:04:54.973Z,99.90
2018-04-08T14:07:25.044Z,99.90
2018-04-08T14:09:54.318Z,99.90
2018-04-08T14:12:24.105Z,99.90
2018-04-08T14:14:53.370Z,99.90
2018-04-08T14:17:22.398Z,99.90
2018-04-08T14:19:51.672Z,99.90
2018-04-08T14:22:21.061Z,99.90
2018-04-08T14:24:50.336Z,99.90
2018-04-08T14:27:20.479Z,99.90
2018-04-08T14:29:49.878Z,99.90
2018-04-08T14:32:19.182Z,99.90
2018-04-08T14:34:48.376Z,99.90
2018-04-08T14:37:19.316Z,99.90
2018-04-08T14:39:48.436Z,99.90
2018-04-08T14:42:17.561Z,99.90
2018-04-08T14:44:47.792Z,99.90
2018-04-08T14:47:17.832Z,99.90
2018-04-08T14:49:47.138Z,99.90
2018-04-08T14:52:16.406Z,99.90
2018-04-08T14:54:45.672Z,99.90
2018-04-08T14:57:14.841Z,99.90
2018-04-08T14:59:44.487Z,99.90
2018-04-08T15:02:13.750Z,99.90
2018-04-08T15:04:43.128Z,99.90
2018-04-08T15:07:13.273Z,99.90
2018-04-08T15:09:42.484Z,99.90
2018-04-08T15:12:12.524Z,99.90
2018-04-08T15:14:41.792Z,99.90
2018-04-08T15:17:10.968Z,99.90
2018-04-08T15:19:41.180Z,99.90
2018-04-08T15:22:11.052Z,99.90
2018-04-08T15:24:40.168Z,99.90
2018-04-08T15:27:09.559Z,99.90
2018-04-08T15:29:38.902Z,99.90
2018-04-08T15:32:08.575Z,99.90
2018-04-08T15:34:38.138Z,99.90
2018-04-08T15:37:07.528Z,99.90
2018-04-08T15:39:37.576Z,99.90
2018-04-08T15:42:06.975Z,99.90
2018-04-08T15:44:37.376Z,99.90
2018-04-08T15:47:07.089Z,99.90
2018-04-08T15:49:37.349Z,99.90
2018-04-08T15:52:06.586Z,99.90
2018-04-08T15:54:35.713Z,99.90
2018-04-08T15:57:05.837Z,99.90
2018-04-08T15:59:36.052Z,99.90
2018-04-08T16:02:05.364Z,99.90
2018-04-08T16:04:35.580Z,99.90
2018-04-08T16:07:06.152Z,99.90
2018-04-08T16:09:36.144Z,99.90
2018-04-08T16:12:05.532Z,99.90
2018-04-08T16:14:35.457Z,99.90
2018-04-08T16:17:05.372Z,99.90
2018-04-08T16:19:35.707Z,99.90
2018-04-08T16:22:05.500Z,99.90
2018-04-08T16:24:35.728Z,99.90
2018-04-08T16:27:05.644Z,99.90
2018-04-08T16:29:35.658Z,99.90
2018-04-08T16:32:05.720Z,99.90
2018-04-08T16:34:35.244Z,99.90
2018-04-08T16:37:04.174Z,99.90
2018-04-08T16:39:33.344Z,99.90
2018-04-08T16:42:02.673Z,99.90
2018-04-08T16:44:32.011Z,99.90
2018-04-08T16:47:01.293Z,99.90
2018-04-08T16:49:31.521Z,99.90
2018-04-08T16:52:00.632Z,99.90
2018-04-08T16:54:30.927Z,99.90
2018-04-08T16:57:00.681Z,99.90
2018-04-08T16:59:31.072Z,99.90
2018-04-08T17:02:01.406Z,99.90
2018-04-08T17:04:32.329Z,99.90
2018-04-08T17:07:02.995Z,99.90
2018-04-08T17:09:32.975Z,99.90
2018-04-08T17:12:03.450Z,99.90
2018-04-08T17:14:32.970Z,99.90
2018-04-08T17:17:06.432Z,99.90
2018-04-08T17:19:40.668Z,99.90
2018-04-08T17:22:10.043Z,99.90
2018-04-08T17:24:40.602Z,99.90
2018-04-08T17:27:10.492Z,99.90
2018-04-08T17:29:39.712Z,99.90
2018-04-08T17:32:09.138Z,99.90
2018-04-08T17:34:39.424Z,99.90
2018-04-08T17:37:09.492Z,99.90
2018-04-08T17:39:39.180Z,99.90
2018-04-08T17:42:09.875Z,99.90
2018-04-08T17:44:40.007Z,99.90
2018-04-08T17:47:10.328Z,99.90
2018-04-08T17:49:40.050Z,99.90
2018-04-08T17:52:09.712Z,99.90
2018-04-08T17:54:40.084Z,99.90
2018-04-08T17:57:09.685Z,99.90
2018-04-08T17:59:39.816Z,99.90
2018-04-08T18:02:09.824Z,99.90
2018-04-08T18:04:39.748Z,99.90
2018-04-08T18:07:09.592Z,99.90
2018-04-08T18:09:38.869Z,99.90
2018-04-08T18:12:08.883Z,99.90
2018-04-08T18:14:38.339Z,99.90
2018-04-08T18:17:07.625Z,99.90
2018-04-08T18:19:37.200Z,99.90
2018-04-08T18:22:07.056Z,99.90
2018-04-08T18:24:36.212Z,99.90
2018-04-08T18:27:05.360Z,99.90
2018-04-08T18:29:34.467Z,99.90
2018-04-08T18:32:03.536Z,99.90
2018-04-08T18:34:32.800Z,99.90
2018-04-08T18:37:02.175Z,99.90
2018-04-08T18:39:31.615Z,99.90
2018-04-08T18:42:01.336Z,99.90
2018-04-08T18:44:30.780Z,99.90
2018-04-08T18:46:59.952Z,99.90
2018-04-08T18:49:29.432Z,99.90
2018-04-08T18:51:59.444Z,99.90
2018-04-08T18:54:29.483Z,99.90
2018-04-08T18:56:58.474Z,99.90
2018-04-08T18:59:28.618Z,99.90
2018-04-08T19:01:58.633Z,99.90
2018-04-08T19:04:28.380Z,99.90
2018-04-08T19:06:57.459Z,99.90
2018-04-08T19:09:26.571Z,99.90
2018-04-08T19:11:55.725Z,99.90
2018-04-08T19:14:24.916Z,99.90
2018-04-08T19:16:54.174Z,99.90
2018-04-08T19:19:23.616Z,99.90
2018-04-08T19:21:53.412Z,99.90
2018-04-08T19:24:23.443Z,99.90
2018-04-08T19:26:53.429Z,99.90
2018-04-08T19:29:22.709Z,99.90
2018-04-08T19:31:51.760Z,99.90
2018-04-08T19:34:21.994Z,99.90
2018-04-08T19:36:51.293Z,99.90
2018-04-08T19:39:24.033Z,99.90
2018-04-08T19:41:56.950Z,99.90
2018-04-08T19:44:28.999Z,99.90
2018-04-08T19:47:05.689Z,99.90
2018-04-08T19:49:40.043Z,99.90
2018-04-08T19:52:09.365Z,99.90
2018-04-08T19:54:38.784Z,99.90
2018-04-08T19:57:08.604Z,99.90
2018-04-08T19:59:38.341Z,99.90
2018-04-08T20:02:07.505Z,99.90
2018-04-08T20:04:36.591Z,99.90
2018-04-08T20:07:05.900Z,99.90
2018-04-08T20:09:35.096Z,99.90
2018-04-08T20:12:04.267Z,99.90
2018-04-08T20:14:34.569Z,99.90
2018-04-08T20:17:03.787Z,99.90
2018-04-08T20:19:33.314Z,99.90
2018-04-08T20:22:02.346Z,99.90
2018-04-08T20:24:31.573Z,99.90
2018-04-08T20:27:01.627Z,99.90
2018-04-08T20:29:31.032Z,99.90
2018-04-08T20:32:00.016Z,99.90
2018-04-08T20:34:30.108Z,99.90
2018-04-08T20:36:59.403Z,99.90
2018-04-08T20:39:28.681Z,99.90
2018-04-08T20:41:58.284Z,99.90
2018-04-08T20:44:27.837Z,99.90
2018-04-08T20:46:56.965Z,99.90
2018-04-08T20:49:26.292Z,99.90
2018-04-08T20:51:55.457Z,99.90
2018-04-08T20:54:24.725Z,99.90
2018-04-08T20:56:53.984Z,99.90
2018-04-08T20:59:23.437Z,99.90
2018-04-08T21:01:53.509Z,99.90
2018-04-08T21:04:22.777Z,99.90
2018-04-08T21:06:51.947Z,99.90
2018-04-08T21:09:21.357Z,99.90
2018-04-08T21:11:51.284Z,99.90
2018-04-08T21:14:20.468Z,99.90
2018-04-08T21:16:49.598Z,99.90
2018-04-08T21:19:18.942Z,99.90
2018-04-08T21:21:47.900Z,99.90
2018-04-08T21:24:18.122Z,99.90
2018-04-08T21:26:48.408Z,99.90
2018-04-08T21:29:18.138Z,99.90
2018-04-08T21:31:47.047Z,99.90
2018-04-08T21:34:17.215Z,99.90
2018-04-08T21:36:46.576Z,99.90
2018-04-08T21:39:15.666Z,99.90
2018-04-08T21:41:44.702Z,99.90
2018-04-08T21:44:14.252Z,99.90
2018-04-08T21:46:44.209Z,99.90
2018-04-08T21:49:13.197Z,99.90
2018-04-08T21:51:43.093Z,99.90
2018-04-08T21:54:12.710Z,99.90
2018-04-08T21:56:41.807Z,99.90
2018-04-08T21:59:11.996Z,99.90
2018-04-08T22:01:42.110Z,99.90
2018-04-08T22:04:11.528Z,99.90
2018-04-08T22:06:40.620Z,99.90
2018-04-08T22:09:10.735Z,99.90
2018-04-08T22:11:39.967Z,99.90
2018-04-08T22:14:09.235Z,99.90
2018-04-08T22:16:38.145Z,99.90
2018-04-08T22:19:07.374Z,99.90
2018-04-08T22:21:36.497Z,99.90
2018-04-08T22:24:05.702Z,99.90
2018-04-08T22:26:34.723Z,99.90
2018-04-08T22:29:03.923Z,99.90
2018-04-08T22:31:33.878Z,99.90
2018-04-08T22:34:04.078Z,99.90
2018-04-08T22:36:33.259Z,99.90
2018-04-08T22:39:02.704Z,99.90
2018-04-08T22:41:31.907Z,99.90
2018-04-08T22:44:01.114Z,99.90
2018-04-08T22:46:30.704Z,99.90
2018-04-08T22:49:00.076Z,99.90
2018-04-08T22:51:30.091Z,99.90
2018-04-08T22:54:00.071Z,99.90
2018-04-08T22:56:29.407Z,99.90
2018-04-08T22:58:58.820Z,99.90
2018-04-08T23:01:28.629Z,99.90
2018-04-08T23:03:58.760Z,99.90
2018-04-08T23:06:28.776Z,99.90
2018-04-08T23:08:58.661Z,99.90
2018-04-08T23:11:27.866Z,99.90
2018-04-08T23:13:57.365Z,99.90
2018-04-08T23:16:26.520Z,99.90
2018-04-08T23:18:55.797Z,99.90
2018-04-08T23:21:24.991Z,99.90
2018-04-08T23:23:54.368Z,99.90
2018-04-08T23:26:23.219Z,99.90
2018-04-08T23:28:52.538Z,99.90
2018-04-08T23:31:21.962Z,99.90
2018-04-08T23:33:51.429Z,99.90
2018-04-08T23:36:20.637Z,99.90
2018-04-08T23:38:49.811Z,99.90
2018-04-08T23:41:18.825Z,99.90
2018-04-08T23:43:47.942Z,99.90
2018-04-08T23:46:16.982Z,99.90
2018-04-08T23:48:47.217Z,99.90
2018-04-08T23:51:16.349Z,99.90
2018-04-08T23:53:45.623Z,99.90
2018-04-08T23:56:14.894Z,99.90
2018-04-08T23:58:44.212Z,99.90
